Time,TemperatureF,DewpointF,PressureIn,WindDirection,WindDirectionDegrees,WindSpeedMPH,WindSpeedGustMPH,Humidity,HourlyPrecipIn,Conditions,Clouds,dailyrainin,SoftwareType,DateUTC
2013-02-18 00:02:00,43.0,29.0,30.36,NNE,18,5.0,-999.0,58,-99.99,,,-99.99,,2013-02-18 05:02:00,
2013-02-18 00:11:00,43.0,29.0,30.36,NNE,18,5.0,-999.0,58,-99.99,,,-99.99,,2013-02-18 05:11:00,
2013-02-18 00:21:00,43.0,30.0,30.36,North,355,4.0,-999.0,61,-99.99,,,-99.99,,2013-02-18 05:21:00,
2013-02-18 00:32:00,43.0,31.0,30.36,North,355,4.0,-999.0,62,-99.99,,,-99.99,,2013-02-18 05:32:00,
2013-02-18 00:42:00,43.0,31.0,30.36,North,355,4.0,-999.0,62,-99.99,,,-99.99,,2013-02-18 05:42:00,
2013-02-18 00:52:00,43.0,32.0,30.36,North,360,4.0,-999.0,65,-99.99,,,-99.99,,2013-02-18 05:52:00,
2013-02-18 01:02:00,42.0,32.0,30.36,North,360,2.0,-999.0,68,-99.99,,,-99.99,,2013-02-18 06:02:00,
2013-02-18 01:11:00,42.0,32.0,30.36,North,360,2.0,-999.0,68,-99.99,,,-99.99,,2013-02-18 06:11:00,
2013-02-18 01:22:00,41.0,32.0,30.36,North,360,3.0,-999.0,69,-99.99,,,-99.99,,2013-02-18 06:22:00,
2013-02-18 01:32:00,41.0,32.0,30.36,North,360,3.0,-999.0,69,-99.99,,,-99.99,,2013-02-18 06:32:00,
2013-02-18 01:42:00,40.0,30.0,30.36,North,5,2.0,-999.0,67,-99.99,,,-99.99,,2013-02-18 06:42:00,
2013-02-18 01:51:00,40.0,30.0,30.36,North,5,2.0,-999.0,67,-99.99,,,-99.99,,2013-02-18 06:51:00,
2013-02-18 02:02:00,39.0,28.0,30.36,NNE,15,3.0,-999.0,65,-99.99,,,-99.99,,2013-02-18 07:02:00,
2013-02-18 02:11:00,39.0,28.0,30.36,NNE,15,3.0,-999.0,65,-99.99,,,-99.99,,2013-02-18 07:11:00,
2013-02-18 02:22:00,39.0,27.0,30.36,NE,37,3.0,-999.0,62,-99.99,,,-99.99,,2013-02-18 07:22:00,
2013-02-18 02:32:00,38.0,25.0,30.36,NE,44,3.0,-999.0,60,-99.99,,,-99.99,,2013-02-18 07:32:00,
2013-02-18 02:42:00,38.0,25.0,30.36,NE,44,3.0,-999.0,60,-99.99,,,-99.99,,2013-02-18 07:42:00,
2013-02-18 02:51:00,38.0,25.0,30.36,NE,44,1.0,-999.0,60,-99.99,,,-99.99,,2013-02-18 07:51:00,
2013-02-18 03:02:00,38.0,25.0,30.36,NE,44,0.0,-999.0,60,-99.99,,,-99.99,,2013-02-18 08:02:00,
2013-02-18 03:11:00,38.0,25.0,30.36,NE,44,0.0,-999.0,60,-99.99,,,-99.99,,2013-02-18 08:11:00,
2013-02-18 03:21:00,38.0,26.0,30.35,NE,44,0.0,-999.0,62,-99.99,,,-99.99,,2013-02-18 08:21:00,
2013-02-18 03:32:00,38.0,26.0,30.35,NE,44,1.0,-999.0,62,-99.99,,,-99.99,,2013-02-18 08:32:00,
2013-02-18 03:42:00,38.0,26.0,30.35,NE,44,1.0,-999.0,62,-99.99,,,-99.99,,2013-02-18 08:42:00,
2013-02-18 03:52:00,37.0,26.0,30.35,NE,44,1.0,-999.0,64,-99.99,,,-99.99,,2013-02-18 08:52:00,
2013-02-18 04:03:00,37.0,28.0,30.35,NE,44,1.0,-999.0,71,-99.99,,,-99.99,,2013-02-18 09:03:00,
2013-02-18 04:11:00,37.0,28.0,30.35,NE,44,1.0,-999.0,71,-99.99,,,-99.99,,2013-02-18 09:11:00,
2013-02-18 04:22:00,37.0,28.0,30.35,ENE,65,3.0,-999.0,71,-99.99,,,-99.99,,2013-02-18 09:22:00,
2013-02-18 04:32:00,38.0,29.0,30.35,ENE,63,3.0,-999.0,70,-99.99,,,-99.99,,2013-02-18 09:32:00,
2013-02-18 04:42:00,38.0,29.0,30.35,ENE,63,3.0,-999.0,70,-99.99,,,-99.99,,2013-02-18 09:42:00,
2013-02-18 04:52:00,37.0,25.0,30.34,East,79,3.0,-999.0,62,-99.99,,,-99.99,,2013-02-18 09:52:00,
2013-02-18 05:01:00,38.0,26.0,30.35,ENE,74,1.0,-999.0,62,-99.99,,,-99.99,,2013-02-18 10:01:00,
2013-02-18 05:12:00,38.0,26.0,30.35,ENE,74,1.0,-999.0,62,-99.99,,,-99.99,,2013-02-18 10:12:00,
2013-02-18 05:22:00,39.0,26.0,30.35,East,84,2.0,-999.0,59,-99.99,,,-99.99,,2013-02-18 10:22:00,
2013-02-18 05:32:00,39.0,26.0,30.35,ENE,78,3.0,-999.0,60,-99.99,,,-99.99,,2013-02-18 10:32:00,
2013-02-18 05:42:00,39.0,26.0,30.35,ENE,78,3.0,-999.0,60,-99.99,,,-99.99,,2013-02-18 10:42:00,
2013-02-18 05:52:00,39.0,24.0,30.35,ENE,76,4.0,-999.0,55,-99.99,,,-99.99,,2013-02-18 10:52:00,
2013-02-18 06:02:00,40.0,23.0,30.35,ENE,63,4.0,-999.0,50,-99.99,,,-99.99,,2013-02-18 11:02:00,
2013-02-18 06:12:00,40.0,23.0,30.35,ENE,63,4.0,-999.0,50,-99.99,,,-99.99,,2013-02-18 11:12:00,
2013-02-18 06:22:00,40.0,23.0,30.35,ENE,63,3.0,-999.0,51,-99.99,,,-99.99,,2013-02-18 11:22:00,
2013-02-18 06:32:00,39.0,23.0,30.35,ENE,65,3.0,-999.0,53,-99.99,,,-99.99,,2013-02-18 11:32:00,
2013-02-18 06:42:00,39.0,23.0,30.35,ENE,65,3.0,-999.0,53,-99.99,,,-99.99,,2013-02-18 11:42:00,
2013-02-18 06:52:00,39.0,24.0,30.36,ENE,57,3.0,-999.0,54,-99.99,,,-99.99,,2013-02-18 11:52:00,
2013-02-18 07:02:00,39.0,23.0,30.36,ENE,59,3.0,-999.0,53,-99.99,,,-99.99,,2013-02-18 12:02:00,
2013-02-18 07:12:00,39.0,23.0,30.36,ENE,59,3.0,-999.0,53,-99.99,,,-99.99,,2013-02-18 12:12:00,
2013-02-18 07:22:00,39.0,22.0,30.36,NE,54,3.0,-999.0,51,-99.99,,,-99.99,,2013-02-18 12:22:00,
2013-02-18 07:32:00,38.0,21.0,30.36,NE,51,3.0,-999.0,50,-99.99,,,-99.99,,2013-02-18 12:32:00,
2013-02-18 07:42:00,38.0,21.0,30.36,NE,51,3.0,-999.0,50,-99.99,,,-99.99,,2013-02-18 12:42:00,
2013-02-18 07:52:00,38.0,22.0,30.36,NE,53,3.0,-999.0,51,-99.99,,,-99.99,,2013-02-18 12:52:00,
2013-02-18 08:12:00,39.0,22.0,30.36,ENE,60,3.0,-999.0,51,-99.99,,,-99.99,,2013-02-18 13:12:00,
2013-02-18 08:23:00,40.0,23.0,30.37,NE,55,2.0,-999.0,50,-99.99,,,-99.99,,2013-02-18 13:23:00,
2013-02-18 08:32:00,42.0,24.0,30.37,NE,56,3.0,-999.0,48,-99.99,,,-99.99,,2013-02-18 13:32:00,
2013-02-18 08:42:00,42.0,24.0,30.37,NE,56,3.0,-999.0,48,-99.99,,,-99.99,,2013-02-18 13:42:00,
2013-02-18 09:02:00,46.0,21.0,30.37,NE,51,5.0,-999.0,37,-99.99,,,-99.99,,2013-02-18 14:02:00,
2013-02-18 09:12:00,46.0,21.0,30.37,NE,51,5.0,-999.0,37,-99.99,,,-99.99,,2013-02-18 14:12:00,
2013-02-18 09:22:00,48.0,21.0,30.37,NNE,19,4.0,-999.0,34,-99.99,,,-99.99,,2013-02-18 14:22:00,
2013-02-18 09:33:00,49.0,18.0,30.38,NE,47,6.0,-999.0,29,-99.99,,,-99.99,,2013-02-18 14:33:00,
2013-02-18 09:42:00,49.0,18.0,30.38,NE,47,6.0,-999.0,29,-99.99,,,-99.99,,2013-02-18 14:42:00,
2013-02-18 09:53:00,50.0,17.0,30.39,ENE,59,7.0,-999.0,27,-99.99,,,-99.99,,2013-02-18 14:53:00,
2013-02-18 10:02:00,51.0,19.0,30.39,NE,42,6.0,-999.0,28,-99.99,,,-99.99,,2013-02-18 15:02:00,
2013-02-18 10:12:00,51.0,19.0,30.39,NE,42,6.0,-999.0,28,-99.99,,,-99.99,,2013-02-18 15:12:00,
2013-02-18 10:22:00,52.0,21.0,30.39,East,79,5.0,-999.0,29,-99.99,,,-99.99,,2013-02-18 15:22:00,
2013-02-18 10:32:00,52.0,22.0,30.39,ENE,78,7.0,-999.0,30,-99.99,,,-99.99,,2013-02-18 15:32:00,
2013-02-18 10:42:00,52.0,22.0,30.39,ENE,78,7.0,-999.0,30,-99.99,,,-99.99,,2013-02-18 15:42:00,
2013-02-18 10:52:00,54.0,23.0,30.39,NE,51,6.0,-999.0,30,-99.99,,,-99.99,,2013-02-18 15:52:00,
2013-02-18 11:03:00,55.0,27.0,30.39,NE,55,5.0,-999.0,34,-99.99,,,-99.99,,2013-02-18 16:03:00,
2013-02-18 11:12:00,55.0,27.0,30.39,NE,55,5.0,-999.0,34,-99.99,,,-99.99,,2013-02-18 16:12:00,
2013-02-18 11:22:00,56.0,29.0,30.39,ESE,107,4.0,-999.0,35,-99.99,,,-99.99,,2013-02-18 16:22:00,
2013-02-18 11:33:00,57.0,30.0,30.39,ESE,112,5.0,-999.0,35,-99.99,,,-99.99,,2013-02-18 16:33:00,
2013-02-18 11:43:00,57.0,30.0,30.39,ESE,112,5.0,-999.0,35,-99.99,,,-99.99,,2013-02-18 16:43:00,
2013-02-18 11:52:00,57.0,30.0,30.38,ENE,67,6.0,-999.0,35,-99.99,,,-99.99,,2013-02-18 16:52:00,
2013-02-18 12:04:00,58.0,30.0,30.37,NE,44,6.0,-999.0,34,-99.99,,,-99.99,,2013-02-18 17:04:00,
2013-02-18 12:12:00,58.0,30.0,30.37,NE,44,6.0,-999.0,34,-99.99,,,-99.99,,2013-02-18 17:12:00,
2013-02-18 12:22:00,59.0,31.0,30.37,ENE,76,5.0,-999.0,34,-99.99,,,-99.99,,2013-02-18 17:22:00,
2013-02-18 12:33:00,61.0,34.0,30.36,East,88,5.0,-999.0,36,-99.99,,,-99.99,,2013-02-18 17:33:00,
2013-02-18 12:42:00,61.0,34.0,30.36,East,88,5.0,-999.0,36,-99.99,,,-99.99,,2013-02-18 17:42:00,
2013-02-18 12:52:00,61.0,34.0,30.35,East,86,7.0,-999.0,36,-99.99,,,-99.99,,2013-02-18 17:52:00,
2013-02-18 13:02:00,62.0,34.0,30.34,South,170,4.0,-999.0,35,-99.99,,,-99.99,,2013-02-18 18:02:00,
2013-02-18 13:12:00,62.0,34.0,30.34,South,170,4.0,-999.0,35,-99.99,,,-99.99,,2013-02-18 18:12:00,
2013-02-18 13:23:00,62.0,34.0,30.34,South,170,4.0,-999.0,35,-99.99,,,-99.99,,2013-02-18 18:23:00,
2013-02-18 13:33:00,64.0,36.0,30.31,SSW,194,5.0,-999.0,35,-99.99,,,-99.99,,2013-02-18 18:33:00,
2013-02-18 13:43:00,64.0,36.0,30.31,SSW,194,5.0,-999.0,35,-99.99,,,-99.99,,2013-02-18 18:43:00,
2013-02-18 13:53:00,64.0,37.0,30.31,South,180,5.0,-999.0,36,-99.99,,,-99.99,,2013-02-18 18:53:00,
2013-02-18 14:03:00,64.0,37.0,30.30,South,190,5.0,-999.0,37,-99.99,,,-99.99,,2013-02-18 19:03:00,
2013-02-18 14:13:00,64.0,37.0,30.30,South,190,5.0,-999.0,37,-99.99,,,-99.99,,2013-02-18 19:13:00,
2013-02-18 14:22:00,65.0,37.0,30.29,East,96,4.0,-999.0,35,-99.99,,,-99.99,,2013-02-18 19:22:00,
2013-02-18 14:33:00,65.0,36.0,30.29,SSE,150,5.0,-999.0,34,-99.99,,,-99.99,,2013-02-18 19:33:00,
2013-02-18 14:43:00,65.0,36.0,30.29,SSE,150,5.0,-999.0,34,-99.99,,,-99.99,,2013-02-18 19:43:00,
2013-02-18 14:52:00,66.0,38.0,30.29,South,190,5.0,-999.0,36,-99.99,,,-99.99,,2013-02-18 19:52:00,
2013-02-18 15:03:00,66.0,38.0,30.28,South,184,5.0,-999.0,35,-99.99,,,-99.99,,2013-02-18 20:03:00,
2013-02-18 15:13:00,66.0,38.0,30.28,South,184,5.0,-999.0,35,-99.99,,,-99.99,,2013-02-18 20:13:00,
2013-02-18 15:23:00,66.0,38.0,30.28,South,179,5.0,-999.0,36,-99.99,,,-99.99,,2013-02-18 20:23:00,
2013-02-18 15:33:00,67.0,38.0,30.27,SSW,198,5.0,-999.0,35,-99.99,,,-99.99,,2013-02-18 20:33:00,
2013-02-18 15:42:00,67.0,38.0,30.27,SSW,198,5.0,-999.0,35,-99.99,,,-99.99,,2013-02-18 20:42:00,
2013-02-18 15:52:00,68.0,41.0,30.27,South,184,4.0,-999.0,37,-99.99,,,-99.99,,2013-02-18 20:52:00,
2013-02-18 16:03:00,67.0,38.0,30.27,ESE,119,6.0,-999.0,35,-99.99,,,-99.99,,2013-02-18 21:03:00,
2013-02-18 16:12:00,67.0,38.0,30.27,ESE,119,6.0,-999.0,35,-99.99,,,-99.99,,2013-02-18 21:12:00,
2013-02-18 16:22:00,67.0,41.0,30.27,SSE,150,5.0,-999.0,38,-99.99,,,-99.99,,2013-02-18 21:22:00,
2013-02-18 16:33:00,67.0,38.0,30.27,ESE,118,4.0,-999.0,35,-99.99,,,-99.99,,2013-02-18 21:33:00,
2013-02-18 16:43:00,67.0,38.0,30.27,ESE,118,4.0,-999.0,35,-99.99,,,-99.99,,2013-02-18 21:43:00,
2013-02-18 16:52:00,67.0,40.0,30.27,ESE,113,5.0,-999.0,37,-99.99,,,-99.99,,2013-02-18 21:52:00,
2013-02-18 17:03:00,65.0,41.0,30.27,SSE,155,4.0,-999.0,41,-99.99,,,-99.99,,2013-02-18 22:03:00,
2013-02-18 17:13:00,65.0,41.0,30.27,ESE,120,4.0,-999.0,42,-99.99,,,-99.99,,2013-02-18 22:13:00,
2013-02-18 17:22:00,65.0,41.0,30.27,ESE,120,4.0,-999.0,42,-99.99,,,-99.99,,2013-02-18 22:22:00,
2013-02-18 17:33:00,63.0,41.0,30.27,East,88,4.0,-999.0,44,-99.99,,,-99.99,,2013-02-18 22:33:00,
2013-02-18 17:52:00,64.0,41.0,30.27,East,79,4.0,-999.0,43,-99.99,,,-99.99,,2013-02-18 22:52:00,
2013-02-18 18:03:00,63.0,42.0,30.27,ESE,107,4.0,-999.0,46,-99.99,,,-99.99,,2013-02-18 23:03:00,
2013-02-18 18:12:00,63.0,42.0,30.27,ESE,107,4.0,-999.0,46,-99.99,,,-99.99,,2013-02-18 23:12:00,
2013-02-18 18:23:00,62.0,42.0,30.27,ESE,105,2.0,-999.0,47,-99.99,,,-99.99,,2013-02-18 23:23:00,
2013-02-18 18:33:00,62.0,42.0,30.27,ESE,104,3.0,-999.0,47,-99.99,,,-99.99,,2013-02-18 23:33:00,
2013-02-18 18:43:00,62.0,42.0,30.27,ESE,104,3.0,-999.0,47,-99.99,,,-99.99,,2013-02-18 23:43:00,
2013-02-18 18:52:00,61.0,42.0,30.27,East,99,3.0,-999.0,50,-99.99,,,-99.99,,2013-02-18 23:52:00,
2013-02-18 19:03:00,60.0,42.0,30.26,East,93,4.0,-999.0,52,-99.99,,,-99.99,,2013-02-19 00:03:00,
2013-02-18 19:12:00,60.0,42.0,30.26,East,93,4.0,-999.0,52,-99.99,,,-99.99,,2013-02-19 00:12:00,
2013-02-18 19:22:00,59.0,43.0,30.27,East,99,3.0,-999.0,55,-99.99,,,-99.99,,2013-02-19 00:22:00,
2013-02-18 19:35:00,59.0,44.0,30.27,ESE,103,2.0,-999.0,57,-99.99,,,-99.99,,2013-02-19 00:35:00,
2013-02-18 19:43:00,59.0,44.0,30.27,ESE,103,2.0,-999.0,57,-99.99,,,-99.99,,2013-02-19 00:43:00,
2013-02-18 19:53:00,58.0,43.0,30.26,ESE,103,3.0,-999.0,58,-99.99,,,-99.99,,2013-02-19 00:53:00,
2013-02-18 20:03:00,58.0,44.0,30.26,ENE,78,3.0,-999.0,60,-99.99,,,-99.99,,2013-02-19 01:03:00,
2013-02-18 20:14:00,58.0,44.0,30.26,ENE,78,3.0,-999.0,60,-99.99,,,-99.99,,2013-02-19 01:14:00,
2013-02-18 20:24:00,57.0,44.0,30.27,East,92,2.0,-999.0,62,-99.99,,,-99.99,,2013-02-19 01:24:00,
2013-02-18 20:35:00,56.0,44.0,30.27,ENE,75,1.0,-999.0,63,-99.99,,,-99.99,,2013-02-19 01:35:00,
2013-02-18 20:44:00,56.0,44.0,30.27,ENE,75,1.0,-999.0,63,-99.99,,,-99.99,,2013-02-19 01:44:00,
2013-02-18 20:54:00,55.0,44.0,30.27,ENE,77,1.0,-999.0,66,-99.99,,,-99.99,,2013-02-19 01:54:00,
2013-02-18 21:04:00,55.0,44.0,30.27,East,80,2.0,-999.0,67,-99.99,,,-99.99,,2013-02-19 02:04:00,
2013-02-18 21:14:00,55.0,44.0,30.27,East,80,2.0,-999.0,67,-99.99,,,-99.99,,2013-02-19 02:14:00,
2013-02-18 21:23:00,55.0,45.0,30.27,ENE,78,1.0,-999.0,68,-99.99,,,-99.99,,2013-02-19 02:23:00,
2013-02-18 21:35:00,55.0,45.0,30.27,ESE,111,2.0,-999.0,68,-99.99,,,-99.99,,2013-02-19 02:35:00,
2013-02-18 21:43:00,55.0,45.0,30.27,ESE,111,2.0,-999.0,68,-99.99,,,-99.99,,2013-02-19 02:43:00,
2013-02-18 21:53:00,55.0,45.0,30.25,ESE,115,3.0,-999.0,68,-99.99,,,-99.99,,2013-02-19 02:53:00,
2013-02-18 22:07:00,54.0,44.0,30.25,East,98,2.0,-999.0,68,-99.99,,,-99.99,,2013-02-19 03:07:00,
2013-02-18 22:15:00,54.0,44.0,30.25,East,98,2.0,-999.0,68,-99.99,,,-99.99,,2013-02-19 03:15:00,
2013-02-18 22:24:00,54.0,44.0,30.24,ESE,115,3.0,-999.0,68,-99.99,,,-99.99,,2013-02-19 03:24:00,
2013-02-18 22:35:00,54.0,44.0,30.25,ESE,113,3.0,-999.0,69,-99.99,,,-99.99,,2013-02-19 03:35:00,
2013-02-18 22:45:00,54.0,44.0,30.25,ESE,113,3.0,-999.0,69,-99.99,,,-99.99,,2013-02-19 03:45:00,
2013-02-18 22:53:00,53.0,43.0,30.24,SE,130,2.0,-999.0,70,-99.99,,,-99.99,,2013-02-19 03:53:00,
2013-02-18 23:03:00,55.0,45.0,30.24,ESE,123,4.0,-999.0,68,-99.99,,,-99.99,,2013-02-19 04:03:00,
2013-02-18 23:14:00,55.0,45.0,30.24,ESE,123,4.0,-999.0,68,-99.99,,,-99.99,,2013-02-19 04:14:00,
2013-02-18 23:23:00,55.0,45.0,30.24,East,98,2.0,-999.0,68,-99.99,,,-99.99,,2013-02-19 04:23:00,
2013-02-18 23:34:00,54.0,44.0,30.23,ESE,111,1.0,-999.0,69,-99.99,,,-99.99,,2013-02-19 04:34:00,
2013-02-18 23:44:00,54.0,44.0,30.23,ESE,111,1.0,-999.0,69,-99.99,,,-99.99,,2013-02-19 04:44:00,
2013-02-18 23:53:00,53.0,43.0,30.23,ESE,108,0.0,-999.0,70,-99.99,,,-99.99,,2013-02-19 04:53:00,